»·PEaware :: N2330C KOXR-KIFP

N2330C :: KOXR-KIFP

FLIGHT INFORMATION

Flight Status: Arrived
Operator: Privately registered:
United States
More flights under this callsign
Pilot: Walt M. (574)
Aircraft: CESSNA 182 SKYLANE
(C182)
More flights by this aircraft type
Origin: KOXR Oxnard
United States
Destination: KIFP Laughlin/Bullhead Intl
United States
More flights between these airports :: More routes between these airports
Route: FIM V386 PMD V12 EED
File this flight plan on PilotEdge
Remarks: REQ VOR RY34 APPCH
Altitude:
(Current/Filed)
90ft
Speed:
(Current/Filed)
120kts
Departed: 03-Jan-21 02:15 PM
Arrived: 03-Jan-21 04:25 PM
Distance/Time
Traveled:
237nm/2:10
Distance/Time
To Go:
Arrived

Flight Plot

Page will automatically refresh every two minutes.

Flight plan parsing failed; only flown route is shown


Map Options




Map Legend


Flown Route
Filed Route
Departure Airport
Arrival Airport
Navaid (VOR, NDB)
Fix

Horizontal Profiles

Position Reports

Time Latitude Longitude Heading Altitude Ground
Speed
03-Jan-21 13:58 34.198572 -119.206344 9 46ft 0kts
03-Jan-21 13:59 34.198576 -119.206343 9 46ft 0kts
03-Jan-21 14:00 34.198579 -119.206342 9 46ft 0kts
03-Jan-21 14:00 34.198581 -119.206342 9 46ft 0kts
03-Jan-21 14:02 34.198584 -119.206341 9 46ft 0kts
03-Jan-21 14:03 34.198588 -119.206341 9 46ft 0kts
03-Jan-21 14:03 34.198591 -119.206340 9 46ft 0kts
03-Jan-21 14:04 34.198594 -119.206339 9 46ft 0kts
03-Jan-21 14:05 34.198598 -119.206339 9 46ft 0kts
03-Jan-21 14:06 34.198601 -119.206338 9 46ft 0kts
03-Jan-21 14:07 34.198604 -119.206337 9 46ft 0kts
03-Jan-21 14:08 34.198608 -119.206337 9 46ft 0kts
03-Jan-21 14:09 34.199685 -119.205049 91 46ft 20kts
03-Jan-21 14:10 34.199581 -119.197985 85 46ft 11kts
03-Jan-21 14:11 34.199983 -119.197543 311 46ft 0kts
03-Jan-21 14:12 34.200171 -119.197637 356 46ft 0kts
03-Jan-21 14:13 34.200656 -119.197728 310 46ft 9kts
03-Jan-21 14:14 34.200883 -119.216965 270 490ft 85kts
03-Jan-21 14:15 34.201546 -119.246619 270 1398ft 89kts
03-Jan-21 14:16 34.202711 -119.276891 271 2265ft 90kts
03-Jan-21 14:17 34.203535 -119.307192 270 3079ft 92kts
03-Jan-21 14:18 34.211556 -119.334914 343 3824ft 99kts
03-Jan-21 14:19 34.227285 -119.309325 71 4498ft 106kts
03-Jan-21 14:20 34.236493 -119.274512 69 5136ft 110kts
03-Jan-21 14:21 34.247715 -119.239225 64 5756ft 113kts
03-Jan-21 14:22 34.258580 -119.202748 66 6324ft 115kts
03-Jan-21 14:23 34.269855 -119.166740 65 6915ft 112kts
03-Jan-21 14:24 34.281247 -119.133230 67 7527ft 104kts
03-Jan-21 14:25 34.293622 -119.101610 65 8012ft 105kts
03-Jan-21 14:26 34.303049 -119.067645 75 8460ft 105kts
03-Jan-21 14:27 34.311946 -119.032224 73 8806ft 114kts
03-Jan-21 14:28 34.321216 -118.993851 71 8990ft 128kts
03-Jan-21 14:29 34.333589 -118.952376 63 8990ft 136kts
03-Jan-21 14:30 34.348091 -118.911271 70 9023ft 133kts
03-Jan-21 14:31 34.359906 -118.868690 72 9014ft 134kts
03-Jan-21 14:32 34.373023 -118.826683 67 8994ft 133kts
03-Jan-21 14:33 34.388892 -118.785487 64 8986ft 133kts
03-Jan-21 14:34 34.402679 -118.743735 69 8989ft 133kts
03-Jan-21 14:35 34.415539 -118.701520 67 9000ft 132kts
03-Jan-21 14:36 34.429957 -118.660373 65 9000ft 133kts
03-Jan-21 14:37 34.444674 -118.619218 67 9004ft 133kts
03-Jan-21 14:38 34.457154 -118.577089 71 9014ft 132kts
03-Jan-21 14:39 34.471488 -118.535740 65 9013ft 132kts
03-Jan-21 14:40 34.486343 -118.494826 67 9018ft 133kts
03-Jan-21 14:41 34.499483 -118.452873 70 9024ft 133kts
03-Jan-21 14:42 34.513508 -118.411466 66 9029ft 132kts
03-Jan-21 14:43 34.528649 -118.370498 64 9035ft 132kts
03-Jan-21 14:44 34.542812 -118.329192 70 9038ft 133kts
03-Jan-21 14:45 34.554636 -118.286581 70 9038ft 133kts
03-Jan-21 14:46 34.569807 -118.245739 63 9038ft 133kts
03-Jan-21 14:47 34.585545 -118.205014 66 9039ft 133kts
03-Jan-21 14:48 34.599300 -118.163452 69 9042ft 133kts
03-Jan-21 14:49 34.611502 -118.120968 69 9046ft 133kts
03-Jan-21 14:50 34.626591 -118.080107 65 9051ft 133kts
03-Jan-21 14:51 34.635795 -118.036696 84 9054ft 132kts
03-Jan-21 14:52 34.640019 -117.992331 81 9067ft 132kts
03-Jan-21 14:53 34.646869 -117.948342 80 9076ft 132kts
03-Jan-21 14:54 34.653261 -117.904291 82 9086ft 132kts
03-Jan-21 14:55 34.657222 -117.859695 86 9094ft 132kts
03-Jan-21 14:56 34.663893 -117.815699 75 9100ft 132kts
03-Jan-21 14:57 34.670795 -117.771494 80 9096ft 133kts
03-Jan-21 14:58 34.678513 -117.727558 79 9091ft 133kts
03-Jan-21 14:59 34.684203 -117.682976 81 9078ft 134kts
03-Jan-21 15:00 34.690250 -117.638489 80 9066ft 133kts
03-Jan-21 15:01 34.697050 -117.594025 80 9055ft 133kts
03-Jan-21 15:02 34.702322 -117.549434 85 9044ft 133kts
03-Jan-21 15:03 34.705447 -117.504480 86 9036ft 133kts
03-Jan-21 15:04 34.709656 -117.459811 81 9028ft 133kts
03-Jan-21 15:05 34.716352 -117.415403 79 9022ft 133kts
03-Jan-21 15:06 34.723450 -117.371191 79 9013ft 133kts
03-Jan-21 15:07 34.730542 -117.326832 79 9006ft 133kts
03-Jan-21 15:08 34.737601 -117.282473 79 9001ft 133kts
03-Jan-21 15:09 34.744588 -117.238203 80 8997ft 133kts
03-Jan-21 15:10 34.750088 -117.193624 82 8995ft 133kts
03-Jan-21 15:11 34.755372 -117.149130 82 8995ft 133kts
03-Jan-21 15:12 34.760703 -117.104494 82 8996ft 133kts
03-Jan-21 15:13 34.766045 -117.060035 82 8998ft 133kts
03-Jan-21 15:14 34.771442 -117.015401 82 9000ft 133kts
03-Jan-21 15:15 34.776854 -116.970939 82 9003ft 133kts
03-Jan-21 15:16 34.782327 -116.926308 82 9003ft 133kts
03-Jan-21 15:17 34.788187 -116.881893 75 8999ft 133kts
03-Jan-21 15:18 34.799174 -116.838708 72 9002ft 133kts
03-Jan-21 15:19 34.810750 -116.795922 76 9001ft 133kts
03-Jan-21 15:20 34.813716 -116.750919 88 9004ft 132kts
03-Jan-21 15:21 34.813561 -116.706257 93 9008ft 132kts
03-Jan-21 15:23 34.811593 -116.661439 98 9011ft 132kts
03-Jan-21 15:24 34.805759 -116.617455 103 9016ft 131kts
03-Jan-21 15:25 34.799585 -116.573354 102 9021ft 131kts
03-Jan-21 15:26 34.792013 -116.529847 103 9025ft 131kts
03-Jan-21 15:27 34.792797 -116.485156 82 9025ft 133kts
03-Jan-21 15:28 34.795571 -116.440472 94 9020ft 133kts
03-Jan-21 15:29 34.796022 -116.395529 93 9028ft 132kts
03-Jan-21 15:30 34.793962 -116.350892 94 9035ft 132kts
03-Jan-21 15:31 34.792490 -116.305995 95 9040ft 132kts
03-Jan-21 15:32 34.790553 -116.261354 91 9045ft 132kts
03-Jan-21 15:33 34.791105 -116.216368 89 9047ft 132kts
03-Jan-21 15:34 34.791059 -116.171565 93 9049ft 132kts
03-Jan-21 15:35 34.789930 -116.126654 92 9052ft 132kts
03-Jan-21 15:36 34.789180 -116.081736 92 9058ft 132kts
03-Jan-21 15:37 34.788402 -116.036932 92 9063ft 132kts
03-Jan-21 15:38 34.787589 -115.991925 92 9067ft 132kts
03-Jan-21 15:38 34.786886 -115.954371 92 9070ft 133kts
03-Jan-21 15:39 34.786018 -115.909587 92 9078ft 133kts
03-Jan-21 15:40 34.784438 -115.864630 95 9086ft 132kts
03-Jan-21 15:42 34.781669 -115.812246 93 9090ft 133kts
03-Jan-21 15:42 34.782198 -115.774587 88 9072ft 136kts
03-Jan-21 15:43 34.779211 -115.728762 98 9087ft 135kts
03-Jan-21 15:44 34.775761 -115.683185 97 9056ft 135kts
03-Jan-21 15:45 34.772537 -115.637382 96 9039ft 135kts
03-Jan-21 15:46 34.770169 -115.591580 95 9016ft 136kts
03-Jan-21 15:47 34.768686 -115.545316 91 8993ft 137kts
03-Jan-21 15:48 34.768344 -115.498134 92 8995ft 138kts
03-Jan-21 15:49 34.769388 -115.450976 84 9025ft 139kts
03-Jan-21 15:50 34.773041 -115.403926 84 9073ft 140kts
03-Jan-21 15:51 34.776449 -115.356446 87 9096ft 141kts
03-Jan-21 15:52 34.777399 -115.308730 85 9114ft 142kts
03-Jan-21 15:53 34.780298 -115.260367 84 9136ft 142kts
03-Jan-21 15:54 34.783318 -115.212257 85 9022ft 142kts
03-Jan-21 15:55 34.785948 -115.163972 85 8991ft 143kts
03-Jan-21 15:56 34.787344 -115.115805 89 8994ft 142kts
03-Jan-21 15:57 34.786668 -115.067460 92 8997ft 142kts
03-Jan-21 15:58 34.786466 -115.019316 87 9006ft 142kts
03-Jan-21 15:59 34.788699 -114.971042 88 9017ft 142kts
03-Jan-21 16:00 34.788768 -114.923058 92 9013ft 143kts
03-Jan-21 16:01 34.784276 -114.875004 98 8824ft 143kts
03-Jan-21 16:02 34.778448 -114.827325 98 8326ft 142kts
03-Jan-21 16:03 34.774986 -114.779475 94 7872ft 141kts
03-Jan-21 16:04 34.772635 -114.731964 93 7459ft 140kts
03-Jan-21 16:05 34.771072 -114.684589 91 7081ft 139kts
03-Jan-21 16:06 34.770157 -114.637619 91 6744ft 138kts
03-Jan-21 16:07 34.769591 -114.590767 91 6445ft 137kts
03-Jan-21 16:08 34.768952 -114.544678 92 6200ft 135kts
03-Jan-21 16:09 34.766472 -114.499060 93 6107ft 135kts
03-Jan-21 16:10 34.777398 -114.460431 5 5940ft 124kts
03-Jan-21 16:11 34.807635 -114.470915 322 5528ft 110kts
03-Jan-21 16:12 34.834990 -114.488716 336 5132ft 114kts
03-Jan-21 16:13 34.867001 -114.495055 345 5041ft 116kts
03-Jan-21 16:14 34.898809 -114.501643 345 5018ft 116kts
03-Jan-21 16:15 34.930528 -114.509105 342 4991ft 115kts
03-Jan-21 16:16 34.962106 -114.516399 344 4725ft 114kts
03-Jan-21 16:17 34.993726 -114.523806 344 3770ft 114kts
03-Jan-21 16:18 35.024278 -114.533032 342 3216ft 104kts
03-Jan-21 16:19 35.051891 -114.539885 346 2720ft 100kts
03-Jan-21 16:20 35.079241 -114.544188 348 2138ft 98kts
03-Jan-21 16:21 35.104948 -114.550924 340 1587ft 92kts
03-Jan-21 16:22 35.130062 -114.557397 349 1079ft 92kts
03-Jan-21 16:23 35.154490 -114.559329 353 698ft 60kts
03-Jan-21 16:24 35.161230 -114.559303 42 698ft 4kts
03-Jan-21 16:25 35.161323 -114.559199 42 698ft 0kts
03-Jan-21 16:26 35.161325 -114.559197 42 698ft 0kts
03-Jan-21 16:27 35.161327 -114.559194 42 698ft 0kts
03-Jan-21 16:28 35.162373 -114.557292 45 698ft 8kts
03-Jan-21 16:29 35.163742 -114.556672 266 698ft 0kts

Navigation Log

Ident Type
Flight plan parsing failed, navigation log unavailable